createdAt,value
2019-03-17T07:12:47.548Z,2.70
2019-03-17T07:51:01.125Z,2.47
2019-03-17T07:54:31.207Z,2.10
2019-03-17T08:06:24.025Z,2.40
2019-03-17T08:09:46.060Z,2.43
2019-03-17T08:19:31.525Z,2.57
2019-03-17T08:22:13.575Z,2.50
2019-03-17T08:24:55.813Z,2.10
2019-03-17T08:27:37.204Z,2.00
2019-03-17T08:30:19.771Z,2.07
2019-03-17T08:33:04.261Z,2.30
2019-03-17T08:36:11.589Z,2.33
2019-03-17T08:39:12.354Z,2.50
2019-03-17T08:42:12.605Z,2.43
2019-03-17T14:01:43.657Z,1.30
2019-03-17T17:01:43.382Z,3.10
2019-03-17T18:14:52.103Z,2.23
2019-03-17T18:33:56.847Z,1.77
2019-03-17T19:25:52.448Z,0.90
2019-03-17T19:44:48.146Z,0.60
2019-03-17T20:01:19.995Z,0.70
2019-03-17T20:19:21.868Z,0.80
2019-03-17T20:22:18.019Z,0.60
2019-03-17T20:25:23.331Z,0.67
2019-03-17T20:28:07.661Z,0.60
2019-03-17T20:30:47.477Z,0.70
2019-03-17T20:33:26.405Z,0.53
2019-03-17T20:36:11.367Z,0.60
2019-03-17T20:38:51.124Z,0.80
2019-03-17T20:41:29.229Z,0.70
2019-03-17T20:44:39.523Z,0.60
2019-03-17T20:47:22.546Z,0.60
2019-03-17T20:49:58.164Z,0.50
2019-03-17T20:52:40.887Z,0.63
2019-03-17T20:55:24.738Z,0.80
2019-03-17T20:58:09.147Z,0.63
2019-03-17T21:00:45.530Z,0.70
2019-03-17T21:03:28.062Z,0.60
2019-03-17T21:06:35.772Z,0.67
2019-03-17T21:09:40.403Z,0.70
2019-03-17T21:12:52.118Z,0.80
2019-03-17T21:15:50.603Z,0.80
2019-03-17T21:19:03.141Z,0.90
2019-03-17T21:22:15.249Z,0.70
2019-03-17T21:25:24.794Z,0.70
2019-03-17T21:31:59.890Z,0.70
2019-03-17T21:35:07.557Z,0.70
2019-03-17T21:37:53.563Z,0.73
2019-03-17T21:41:14.106Z,0.77
2019-03-17T21:44:17.792Z,0.90
2019-03-17T21:47:18.338Z,0.70
2019-03-17T21:53:37.968Z,0.80
2019-03-17T21:56:53.107Z,0.80
2019-03-17T22:00:18.907Z,0.90
2019-03-17T22:02:54.748Z,0.80
2019-03-17T22:05:44.355Z,0.90
2019-03-17T22:08:28.584Z,0.80
2019-03-17T22:11:07.014Z,0.90
2019-03-17T22:14:11.988Z,1.00
2019-03-17T22:25:07.700Z,1.00
2019-03-17T22:28:08.513Z,0.77
2019-03-17T22:31:09.884Z,0.80
2019-03-17T22:34:23.761Z,0.70
2019-03-17T22:37:07.287Z,0.77
2019-03-17T22:43:12.950Z,0.80
2019-03-17T22:45:55.904Z,0.77
2019-03-17T22:48:40.542Z,0.80
2019-03-17T22:51:29.863Z,0.80
2019-03-17T22:54:10.132Z,0.70
2019-03-17T22:56:51.926Z,0.87
2019-03-17T22:59:53.743Z,0.73
2019-03-17T23:02:39.608Z,0.80
2019-03-17T23:05:21.986Z,0.80
2019-03-17T23:08:09.527Z,0.90
2019-03-17T23:10:54.629Z,0.80
2019-03-17T23:13:40.756Z,1.10
2019-03-17T23:16:17.221Z,0.70
2019-03-17T23:19:08.801Z,0.87
2019-03-17T23:21:45.165Z,0.90
2019-03-17T23:24:23.687Z,0.87
2019-03-17T23:26:58.709Z,0.90
2019-03-17T23:29:34.650Z,1.10
2019-03-17T23:32:10.621Z,0.83
2019-03-17T23:34:49.980Z,0.87
2019-03-17T23:37:28.780Z,1.00
2019-03-17T23:40:18.282Z,1.10
2019-03-17T23:43:10.540Z,1.30
2019-03-17T23:45:56.941Z,1.40
2019-03-17T23:48:42.163Z,1.13
2019-03-17T23:51:22.296Z,1.53
2019-03-17T23:53:57.766Z,1.10
2019-03-17T23:56:33.398Z,1.27
2019-03-17T23:59:12.043Z,1.07
